Time;durP1;ratioP1;P1;durP2;ratioP2;P2;SDS_P1;SDS_P2;PMS_P1;PMS_P2;Temp;Humidity;BMP_temperature;BMP_pressure;BME280_temperature;BME280_humidity;BME280_pressure;Samples;Min_cycle;Max_cycle;Signal;HPM_P1;HPM_P2
2022/06/19 00:01:02;;;;;;;19.33;1.40;;;;;;;;;;5348139;27;20023;-72
2022/06/19 00:03:36;;;;;;;7.78;0.80;;;;;;;;;;5348105;27;20026;-72
2022/06/19 00:06:08;;;;;;;9.52;0.80;;;;;;;;;;5347445;27;20023;-72
2022/06/19 00:08:39;;;;;;;12.10;0.93;;;;;;;;;;5348009;27;20023;-72
2022/06/19 00:11:11;;;;;;;9.43;0.80;;;;;;;;;;5347825;27;20015;-72
2022/06/19 00:13:42;;;;;;;11.68;1.00;;;;;;;;;;5347197;27;20023;-72
2022/06/19 00:16:13;;;;;;;8.82;0.98;;;;;;;;;;5347596;27;20038;-72
2022/06/19 00:18:45;;;;;;;8.27;0.70;;;;;;;;;;5347164;27;20493;-72
2022/06/19 00:21:17;;;;;;;8.23;1.30;;;;;;;;;;5347605;27;20058;-72
2022/06/19 00:23:48;;;;;;;7.30;0.65;;;;;;;;;;5347680;27;20030;-72
2022/06/19 00:26:19;;;;;;;9.63;0.70;;;;;;;;;;5346779;27;20051;-72
2022/06/19 00:28:50;;;;;;;5.22;0.60;;;;;;;;;;5348122;27;20256;-72
2022/06/19 00:31:21;;;;;;;9.85;1.33;;;;;;;;;;5346993;27;20023;-72
2022/06/19 00:33:53;;;;;;;9.88;1.25;;;;;;;;;;5346969;27;20026;-72
2022/06/19 00:36:26;;;;;;;7.40;0.70;;;;;;;;;;5347132;27;20041;-72
2022/06/19 00:38:58;;;;;;;7.57;0.80;;;;;;;;;;5347669;27;20026;-72
2022/06/19 00:41:39;;;;;;;7.38;0.90;;;;;;;;;;5345965;27;20353;-72
2022/06/19 00:44:11;;;;;;;11.80;0.90;;;;;;;;;;5347185;27;20550;-71
2022/06/19 00:46:51;;;;;;;7.18;0.70;;;;;;;;;;5346247;27;20027;-72
2022/06/19 00:49:23;;;;;;;7.45;0.60;;;;;;;;;;5347007;27;20045;-72
2022/06/19 00:51:58;;;;;;;13.50;1.38;;;;;;;;;;5347317;27;20024;-72
2022/06/19 00:54:31;;;;;;;12.88;0.88;;;;;;;;;;5345744;27;20280;-72
2022/06/19 00:57:02;;;;;;;6.55;0.85;;;;;;;;;;5346902;27;20030;-72
2022/06/19 00:59:34;;;;;;;8.55;1.00;;;;;;;;;;5346566;27;20027;-72
2022/06/19 01:02:06;;;;;;;8.95;1.02;;;;;;;;;;5346131;27;20526;-72
2022/06/19 01:04:41;;;;;;;10.68;1.10;;;;;;;;;;5346766;27;20110;-72
2022/06/19 01:07:13;;;;;;;10.13;1.10;;;;;;;;;;5346779;27;20411;-73
2022/06/19 01:09:44;;;;;;;8.55;1.00;;;;;;;;;;5345876;27;20023;-72
2022/06/19 01:12:16;;;;;;;12.32;1.40;;;;;;;;;;5345782;27;20091;-72
2022/06/19 01:14:47;;;;;;;12.98;1.58;;;;;;;;;;5345924;27;20057;-72
2022/06/19 01:17:18;;;;;;;9.20;1.17;;;;;;;;;;5346145;27;20075;-72
2022/06/19 01:19:50;;;;;;;11.18;0.80;;;;;;;;;;5346755;27;20076;-71
2022/06/19 01:22:37;;;;;;;16.42;1.58;;;;;;;;;;5345136;27;20108;-72
2022/06/19 01:25:11;;;;;;;11.57;1.65;;;;;;;;;;5346444;27;20412;-71
2022/06/19 01:30:39;;;;;;;12.35;1.13;;;;;;;;;;5345941;27;20062;-70
2022/06/19 01:33:12;;;;;;;11.88;0.77;;;;;;;;;;5346323;27;20015;-71
2022/06/19 01:35:45;;;;;;;18.27;1.38;;;;;;;;;;5346191;27;20027;-71
2022/06/19 01:38:18;;;;;;;7.60;0.85;;;;;;;;;;5345329;27;20019;-71
2022/06/19 01:40:57;;;;;;;13.65;1.08;;;;;;;;;;5346241;27;20027;-71
2022/06/19 01:43:28;;;;;;;14.57;2.33;;;;;;;;;;5344956;27;20023;-71
2022/06/19 01:46:00;;;;;;;13.32;0.90;;;;;;;;;;5346113;27;20022;-71
2022/06/19 01:48:33;;;;;;;13.32;1.20;;;;;;;;;;5345825;27;20018;-72
2022/06/19 01:51:05;;;;;;;10.93;1.30;;;;;;;;;;5345081;27;20113;-71
2022/06/19 01:53:55;;;;;;;14.48;1.40;;;;;;;;;;5345789;27;20482;-70
2022/06/19 01:56:26;;;;;;;14.07;1.48;;;;;;;;;;5345409;27;20034;-73
2022/06/19 01:59:05;;;;;;;9.73;0.98;;;;;;;;;;5345072;27;20102;-73
2022/06/19 02:01:37;;;;;;;10.48;1.25;;;;;;;;;;5345617;27;20019;-72
2022/06/19 02:04:08;;;;;;;12.15;1.10;;;;;;;;;;5344832;27;20015;-73
2022/06/19 02:06:41;;;;;;;11.55;1.00;;;;;;;;;;5345598;27;20022;-70
2022/06/19 02:09:17;;;;;;;11.63;1.13;;;;;;;;;;5345436;27;20007;-71
2022/06/19 02:11:48;;;;;;;14.32;0.88;;;;;;;;;;5344722;27;20470;-71
2022/06/19 02:14:19;;;;;;;9.93;1.27;;;;;;;;;;5344650;27;20025;-73
2022/06/19 02:16:51;;;;;;;9.18;0.85;;;;;;;;;;5345855;27;20026;-70
2022/06/19 02:19:22;;;;;;;9.73;1.15;;;;;;;;;;5344549;27;20059;-71
2022/06/19 02:21:54;;;;;;;11.27;0.95;;;;;;;;;;5345160;27;20039;-73
2022/06/19 02:24:26;;;;;;;11.25;0.80;;;;;;;;;;5344743;27;20151;-70
2022/06/19 02:26:58;;;;;;;10.70;0.80;;;;;;;;;;5344973;27;20102;-70
2022/06/19 02:29:29;;;;;;;7.55;0.75;;;;;;;;;;5344932;27;20023;-71
2022/06/19 02:32:01;;;;;;;7.13;0.70;;;;;;;;;;5345130;27;20365;-71
2022/06/19 02:34:36;;;;;;;11.68;1.73;;;;;;;;;;5344090;27;20039;-71
2022/06/19 02:37:14;;;;;;;5.75;0.77;;;;;;;;;;5344834;27;20037;-71
2022/06/19 02:39:48;;;;;;;13.93;1.02;;;;;;;;;;5344317;27;20500;-71
2022/06/19 02:42:19;;;;;;;11.40;1.27;;;;;;;;;;5344772;27;20042;-71
2022/06/19 02:44:52;;;;;;;13.50;0.90;;;;;;;;;;5345091;27;20058;-70
2022/06/19 02:47:24;;;;;;;8.68;0.82;;;;;;;;;;5343846;27;20612;-71
2022/06/19 02:49:56;;;;;;;10.40;0.80;;;;;;;;;;5345451;27;20144;-71
2022/06/19 02:52:27;;;;;;;8.75;1.48;;;;;;;;;;5344698;27;20098;-71
2022/06/19 02:54:58;;;;;;;7.75;0.80;;;;;;;;;;5344396;27;20050;-71
2022/06/19 02:57:30;;;;;;;6.13;0.60;;;;;;;;;;5344481;28;20098;-71
2022/06/19 03:00:03;;;;;;;10.30;1.08;;;;;;;;;;5344691;27;20106;-71
2022/06/19 03:02:34;;;;;;;9.40;1.05;;;;;;;;;;5343592;28;20049;-71
2022/06/19 03:05:06;;;;;;;9.95;0.70;;;;;;;;;;5344994;27;20048;-71
2022/06/19 03:07:37;;;;;;;10.32;0.73;;;;;;;;;;5343996;28;20031;-71
2022/06/19 03:10:08;;;;;;;11.35;0.60;;;;;;;;;;5344565;27;20053;-71
2022/06/19 03:12:39;;;;;;;4.35;0.50;;;;;;;;;;5344374;27;20260;-71
2022/06/19 03:15:11;;;;;;;8.35;0.70;;;;;;;;;;5343679;27;20031;-71
2022/06/19 03:17:43;;;;;;;9.15;0.68;;;;;;;;;;5344382;27;20023;-71
2022/06/19 03:20:16;;;;;;;8.05;0.57;;;;;;;;;;5344318;28;20012;-70
2022/06/19 03:22:47;;;;;;;9.20;0.43;;;;;;;;;;5343535;28;20015;-71
2022/06/19 03:25:19;;;;;;;7.13;0.40;;;;;;;;;;5343854;27;20017;-70
2022/06/19 03:27:50;;;;;;;5.47;0.45;;;;;;;;;;5344739;28;20015;-70
2022/06/19 03:30:22;;;;;;;8.07;0.63;;;;;;;;;;5343184;27;20139;-71
2022/06/19 03:32:54;;;;;;;5.82;0.40;;;;;;;;;;5344635;28;20436;-71
2022/06/19 03:35:25;;;;;;;8.98;0.60;;;;;;;;;;5347020;27;20099;-71
2022/06/19 03:37:56;;;;;;;4.78;0.70;;;;;;;;;;5348499;27;20038;-71
2022/06/19 03:40:27;;;;;;;7.23;0.50;;;;;;;;;;5348284;27;20265;-72
2022/06/19 03:42:58;;;;;;;6.65;0.40;;;;;;;;;;5348061;27;20441;-71
2022/06/19 03:45:30;;;;;;;6.45;0.35;;;;;;;;;;5348132;27;20015;-71
2022/06/19 03:48:01;;;;;;;3.58;0.57;;;;;;;;;;5348495;27;20305;-71
2022/06/19 03:50:32;;;;;;;3.72;0.30;;;;;;;;;;5347512;27;20019;-71
2022/06/19 03:53:03;;;;;;;4.35;0.35;;;;;;;;;;5348532;27;20019;-71
2022/06/19 03:55:35;;;;;;;5.32;0.30;;;;;;;;;;5348106;27;20027;-71
2022/06/19 03:58:06;;;;;;;4.78;0.30;;;;;;;;;;5347164;27;20336;-71
2022/06/19 04:00:37;;;;;;;6.72;0.40;;;;;;;;;;5347984;27;20049;-71
2022/06/19 04:03:08;;;;;;;3.70;0.30;;;;;;;;;;5348299;27;20015;-72
2022/06/19 04:05:39;;;;;;;11.20;0.40;;;;;;;;;;5347277;27;20022;-72
2022/06/19 04:08:11;;;;;;;5.00;0.30;;;;;;;;;;5347950;27;20025;-71
2022/06/19 04:10:42;;;;;;;4.63;0.30;;;;;;;;;;5347002;27;20261;-71
2022/06/19 04:13:13;;;;;;;5.32;0.30;;;;;;;;;;5348128;27;20260;-71
2022/06/19 04:15:44;;;;;;;6.65;0.30;;;;;;;;;;5347907;27;20341;-71
2022/06/19 04:18:15;;;;;;;5.78;0.50;;;;;;;;;;5347136;27;20272;-71
2022/06/19 04:20:46;;;;;;;6.75;0.30;;;;;;;;;;5347592;27;20288;-71
2022/06/19 04:23:18;;;;;;;5.13;0.70;;;;;;;;;;5347666;27;20027;-71
2022/06/19 04:25:49;;;;;;;10.77;0.98;;;;;;;;;;5347448;27;20276;-71
2022/06/19 04:28:24;;;;;;;6.85;0.20;;;;;;;;;;5347332;27;20023;-70
2022/06/19 04:30:55;;;;;;;5.97;0.30;;;;;;;;;;5347978;27;20095;-70
2022/06/19 04:33:26;;;;;;;8.23;0.50;;;;;;;;;;5346417;27;20102;-71
2022/06/19 04:35:57;;;;;;;4.60;0.30;;;;;;;;;;5347680;27;20348;-71
2022/06/19 04:38:29;;;;;;;3.45;0.30;;;;;;;;;;5347215;27;20266;-70
2022/06/19 04:41:00;;;;;;;4.45;0.50;;;;;;;;;;5346675;27;20019;-72
2022/06/19 04:43:31;;;;;;;5.70;0.70;;;;;;;;;;5347121;27;20347;-72
2022/06/19 04:46:04;;;;;;;7.53;0.40;;;;;;;;;;5345213;27;20462;-72
2022/06/19 04:48:35;;;;;;;7.82;0.40;;;;;;;;;;5347220;27;20026;-72
2022/06/19 04:51:06;;;;;;;9.93;0.40;;;;;;;;;;5347145;27;20366;-71
2022/06/19 04:53:38;;;;;;;6.83;0.50;;;;;;;;;;5346537;27;20358;-71
2022/06/19 04:56:11;;;;;;;9.57;0.40;;;;;;;;;;5347058;27;20288;-71
2022/06/19 04:58:43;;;;;;;6.85;0.57;;;;;;;;;;5347032;27;20470;-71
2022/06/19 05:01:17;;;;;;;8.25;0.80;;;;;;;;;;5346144;27;20062;-71
2022/06/19 05:03:48;;;;;;;6.28;0.65;;;;;;;;;;5347126;27;20027;-71
2022/06/19 05:06:20;;;;;;;7.47;0.77;;;;;;;;;;5346551;27;20031;-72
2022/06/19 05:08:51;;;;;;;5.88;0.38;;;;;;;;;;5346250;27;20042;-71
2022/06/19 05:11:23;;;;;;;5.32;0.45;;;;;;;;;;5346323;27;20102;-71
2022/06/19 05:13:54;;;;;;;7.07;0.55;;;;;;;;;;5346869;27;20194;-71
2022/06/19 05:16:25;;;;;;;6.68;0.70;;;;;;;;;;5345735;27;20031;-71
2022/06/19 05:18:56;;;;;;;6.03;0.63;;;;;;;;;;5346928;27;20497;-71
2022/06/19 05:21:28;;;;;;;7.60;0.50;;;;;;;;;;5345167;27;20156;-71
2022/06/19 05:23:59;;;;;;;6.53;0.47;;;;;;;;;;5346669;27;20015;-71
2022/06/19 05:26:31;;;;;;;5.57;0.90;;;;;;;;;;5346087;27;20309;-71
2022/06/19 05:29:03;;;;;;;8.93;0.82;;;;;;;;;;5345603;27;20011;-71
2022/06/19 05:31:35;;;;;;;5.32;0.35;;;;;;;;;;5345968;27;20378;-71
2022/06/19 05:34:06;;;;;;;2.95;0.52;;;;;;;;;;5346137;27;20019;-71
2022/06/19 05:36:37;;;;;;;8.02;0.40;;;;;;;;;;5345424;27;20066;-73
2022/06/19 05:39:09;;;;;;;6.45;0.60;;;;;;;;;;5346020;27;20027;-73
2022/06/19 05:41:40;;;;;;;7.10;0.50;;;;;;;;;;5346124;27;20365;-73
2022/06/19 05:44:12;;;;;;;7.43;0.50;;;;;;;;;;5345295;27;20045;-73
2022/06/19 05:46:46;;;;;;;6.15;0.50;;;;;;;;;;5345967;27;20029;-73
2022/06/19 05:49:17;;;;;;;9.30;0.60;;;;;;;;;;5345307;27;20485;-71
2022/06/19 05:51:48;;;;;;;6.85;0.80;;;;;;;;;;5346092;27;20035;-72
2022/06/19 05:54:20;;;;;;;4.85;0.70;;;;;;;;;;5345352;27;20362;-71
2022/06/19 05:56:51;;;;;;;7.10;0.57;;;;;;;;;;5344902;27;20011;-71
2022/06/19 05:59:22;;;;;;;8.43;0.50;;;;;;;;;;5345631;27;20374;-72
2022/06/19 06:01:53;;;;;;;9.85;0.70;;;;;;;;;;5346027;27;20288;-72
2022/06/19 06:04:24;;;;;;;6.15;1.05;;;;;;;;;;5344486;27;20068;-72
2022/06/19 06:06:56;;;;;;;8.07;0.70;;;;;;;;;;5346087;27;20275;-71
2022/06/19 06:09:27;;;;;;;6.13;0.85;;;;;;;;;;5345055;27;20114;-71
2022/06/19 06:11:58;;;;;;;6.77;1.00;;;;;;;;;;5344842;27;20272;-71
2022/06/19 06:14:29;;;;;;;8.93;0.60;;;;;;;;;;5345104;27;20288;-72
2022/06/19 06:17:00;;;;;;;6.20;0.82;;;;;;;;;;5345523;27;20317;-72
2022/06/19 06:19:32;;;;;;;7.70;0.52;;;;;;;;;;5344571;27;20271;-72
2022/06/19 06:22:04;;;;;;;6.93;0.50;;;;;;;;;;5345171;27;20300;-71
2022/06/19 06:24:35;;;;;;;9.73;0.63;;;;;;;;;;5344473;27;20015;-72
2022/06/19 06:27:06;;;;;;;5.87;0.63;;;;;;;;;;5345398;27;20075;-72
2022/06/19 06:29:37;;;;;;;8.65;0.70;;;;;;;;;;5345175;27;20351;-72
2022/06/19 06:32:08;;;;;;;14.48;1.58;;;;;;;;;;5344257;27;20026;-71
2022/06/19 06:34:40;;;;;;;5.57;0.40;;;;;;;;;;5344759;27;20038;-72
2022/06/19 06:37:11;;;;;;;5.97;0.50;;;;;;;;;;5344943;27;20297;-72
2022/06/19 06:39:42;;;;;;;8.77;0.70;;;;;;;;;;5344064;27;20269;-71
2022/06/19 06:42:13;;;;;;;7.37;0.57;;;;;;;;;;5344875;27;20373;-72
2022/06/19 06:44:44;;;;;;;4.78;0.40;;;;;;;;;;5344660;27;20311;-71
2022/06/19 06:47:15;;;;;;;12.50;0.57;;;;;;;;;;5344030;27;20023;-72
2022/06/19 06:49:47;;;;;;;5.95;0.50;;;;;;;;;;5344867;27;20257;-72
2022/06/19 06:52:18;;;;;;;6.28;1.02;;;;;;;;;;5344563;27;20015;-71
2022/06/19 06:54:49;;;;;;;10.75;0.80;;;;;;;;;;5344128;27;20031;-71
2022/06/19 06:57:20;;;;;;;9.05;0.60;;;;;;;;;;5344218;28;20018;-72
2022/06/19 06:59:51;;;;;;;5.37;0.67;;;;;;;;;;5343973;27;20268;-72
2022/06/19 07:02:22;;;;;;;9.25;0.50;;;;;;;;;;5344355;28;20265;-69
2022/06/19 07:04:55;;;;;;;12.15;0.80;;;;;;;;;;5344776;28;20268;-71
2022/06/19 07:07:26;;;;;;;9.30;0.68;;;;;;;;;;5343537;27;20677;-71
2022/06/19 07:09:57;;;;;;;6.88;0.50;;;;;;;;;;5347424;27;20047;-71
2022/06/19 07:12:28;;;;;;;7.00;0.80;;;;;;;;;;5348726;27;20265;-71
2022/06/19 07:14:59;;;;;;;8.60;0.43;;;;;;;;;;5348446;27;20290;-71
2022/06/19 07:17:30;;;;;;;4.80;0.40;;;;;;;;;;5348725;27;20060;-71
2022/06/19 07:20:02;;;;;;;6.40;0.57;;;;;;;;;;5348540;27;20261;-71
2022/06/19 07:22:34;;;;;;;8.10;0.75;;;;;;;;;;5347604;27;20661;-70
2022/06/19 07:25:05;;;;;;;5.38;0.60;;;;;;;;;;5348949;27;20011;-71
2022/06/19 07:27:36;;;;;;;10.00;1.77;;;;;;;;;;5347866;27;20030;-71
2022/06/19 07:30:09;;;;;;;11.97;0.93;;;;;;;;;;5348558;27;20101;-71
2022/06/19 07:32:40;;;;;;;8.65;0.60;;;;;;;;;;5348577;27;20783;-70
2022/06/19 07:35:12;;;;;;;11.67;1.00;;;;;;;;;;5347731;27;20113;-69
2022/06/19 07:37:43;;;;;;;8.40;0.70;;;;;;;;;;5348503;27;20265;-69
2022/06/19 07:40:16;;;;;;;7.43;1.20;;;;;;;;;;5348541;27;20465;-69
2022/06/19 07:42:47;;;;;;;9.30;0.88;;;;;;;;;;5347642;27;20018;-70
2022/06/19 07:45:18;;;;;;;8.07;1.30;;;;;;;;;;5347951;27;20088;-70
2022/06/19 07:50:39;;;;;;;12.73;0.80;;;;;;;;;;5347817;27;20120;-70
2022/06/19 07:53:11;;;;;;;8.40;0.90;;;;;;;;;;5348155;27;20096;-70
2022/06/19 07:55:42;;;;;;;8.70;0.60;;;;;;;;;;5347260;27;20337;-70
2022/06/19 07:58:13;;;;;;;9.23;1.13;;;;;;;;;;5347930;27;20019;-70
2022/06/19 08:00:44;;;;;;;13.50;1.00;;;;;;;;;;5348236;27;20541;-71
2022/06/19 08:03:15;;;;;;;12.93;0.80;;;;;;;;;;5347309;27;20064;-71
2022/06/19 08:05:47;;;;;;;10.18;1.33;;;;;;;;;;5347963;27;20128;-71
2022/06/19 08:08:24;;;;;;;11.07;0.93;;;;;;;;;;5347635;27;20414;-71
2022/06/19 08:10:56;;;;;;;11.35;1.25;;;;;;;;;;5347289;27;20054;-70
2022/06/19 08:13:29;;;;;;;13.05;0.73;;;;;;;;;;5347406;27;20033;-71
2022/06/19 08:16:05;;;;;;;12.50;1.73;;;;;;;;;;5347848;27;20023;-72
2022/06/19 08:18:37;;;;;;;10.70;1.15;;;;;;;;;;5346860;27;20377;-69
2022/06/19 08:21:08;;;;;;;11.05;0.93;;;;;;;;;;5347032;27;20078;-70
2022/06/19 08:23:39;;;;;;;10.30;1.35;;;;;;;;;;5343784;27;20047;-70
2022/06/19 08:26:11;;;;;;;10.37;1.13;;;;;;;;;;5345196;27;20015;-69
2022/06/19 08:31:16;;;;;;;10.38;0.77;;;;;;;;;;5346227;27;20037;-69
2022/06/19 08:33:47;;;;;;;12.68;1.20;;;;;;;;;;5338610;27;20023;-69
2022/06/19 08:36:19;;;;;;;13.73;1.92;;;;;;;;;;5324213;28;20374;-71
2022/06/19 08:38:57;;;;;;;10.50;0.80;;;;;;;;;;5324500;28;20023;-71
2022/06/19 08:41:34;;;;;;;10.30;0.70;;;;;;;;;;5324901;28;20020;-71
2022/06/19 08:44:15;;;;;;;12.55;0.90;;;;;;;;;;5325819;28;20015;-71
2022/06/19 08:46:46;;;;;;;9.23;1.23;;;;;;;;;;5325170;28;20385;-72
2022/06/19 08:49:26;;;;;;;12.75;2.47;;;;;;;;;;5325900;28;20023;-72
2022/06/19 08:52:19;;;;;;;10.30;1.67;;;;;;;;;;5324994;28;20307;-72
2022/06/19 08:54:50;;;;;;;12.82;1.00;;;;;;;;;;5325878;28;20043;-72
2022/06/19 08:57:21;;;;;;;9.15;1.35;;;;;;;;;;5325293;28;20016;-72
2022/06/19 09:00:12;;;;;;;11.40;1.25;;;;;;;;;;5325174;28;20019;-73
2022/06/19 09:02:46;;;;;;;10.07;0.70;;;;;;;;;;5325273;28;20358;-72
2022/06/19 09:08:34;;;;;;;9.57;1.27;;;;;;;;;;5324500;28;20107;-72
2022/06/19 09:11:11;;;;;;;8.32;0.85;;;;;;;;;;5325305;28;20081;-72
2022/06/19 09:13:42;;;;;;;8.68;1.13;;;;;;;;;;5324674;28;20028;-72
2022/06/19 09:16:29;;;;;;;7.43;1.10;;;;;;;;;;5325101;28;20064;-73
2022/06/19 09:19:00;;;;;;;10.10;0.60;;;;;;;;;;5325143;28;20047;-72
2022/06/19 09:21:34;;;;;;;10.02;1.35;;;;;;;;;;5324141;28;20082;-71
2022/06/19 09:24:24;;;;;;;8.43;1.23;;;;;;;;;;5325037;28;20128;-71
2022/06/19 09:26:59;;;;;;;7.55;1.15;;;;;;;;;;5325025;28;20020;-70
2022/06/19 09:29:30;;;;;;;8.38;1.05;;;;;;;;;;5323933;28;20028;-70
2022/06/19 09:32:20;;;;;;;6.25;0.80;;;;;;;;;;5324421;28;20438;-71
2022/06/19 09:34:55;;;;;;;6.85;0.60;;;;;;;;;;5324198;28;20122;-71
2022/06/19 09:37:35;;;;;;;10.30;0.80;;;;;;;;;;5324269;28;20016;-71
2022/06/19 09:40:12;;;;;;;9.98;1.15;;;;;;;;;;5324462;28;20019;-70
2022/06/19 09:42:53;;;;;;;6.32;0.75;;;;;;;;;;5324088;28;20491;-71
2022/06/19 09:45:31;;;;;;;11.15;1.02;;;;;;;;;;5324412;28;20020;-70
2022/06/19 09:48:03;;;;;;;;;;;;;;;;;;5322917;27;20035;-71
2022/06/19 09:50:36;;;;;;;8.25;1.38;;;;;;;;;;5328026;27;20347;-71
2022/06/19 09:53:07;;;;;;;5.45;0.60;;;;;;;;;;5323732;28;20479;-71
2022/06/19 09:55:43;;;;;;;7.97;1.10;;;;;;;;;;5322875;28;20082;-71
2022/06/19 09:58:16;;;;;;;8.07;0.85;;;;;;;;;;5323542;28;20318;-71
2022/06/19 10:00:49;;;;;;;9.52;1.02;;;;;;;;;;5323572;28;20454;-72
2022/06/19 10:03:38;;;;;;;8.20;1.08;;;;;;;;;;5322492;28;20018;-72
2022/06/19 10:06:18;;;;;;;7.93;1.25;;;;;;;;;;5323196;28;20287;-71
2022/06/19 10:08:52;;;;;;;8.80;1.20;;;;;;;;;;5323247;28;20027;-73
2022/06/19 10:11:26;;;;;;;7.50;1.10;;;;;;;;;;5322300;28;20051;-73
2022/06/19 10:14:00;;;;;;;7.65;1.20;;;;;;;;;;5324512;28;20056;-73
2022/06/19 10:16:31;;;;;;;8.10;0.80;;;;;;;;;;5323105;28;20040;-74
2022/06/19 10:19:13;;;;;;;5.88;0.80;;;;;;;;;;5323920;28;20487;-72
2022/06/19 10:24:45;;;;;;;4.15;0.52;;;;;;;;;;5323124;28;20031;-71
2022/06/19 10:27:19;;;;;;;4.85;0.70;;;;;;;;;;5323545;28;20011;-72
2022/06/19 10:30:08;;;;;;;8.45;1.00;;;;;;;;;;5324052;28;20024;-72
2022/06/19 10:32:39;;;;;;;4.90;0.77;;;;;;;;;;5322952;28;20038;-72
2022/06/19 10:35:16;;;;;;;7.95;1.10;;;;;;;;;;5323458;28;20023;-71
2022/06/19 10:37:54;;;;;;;6.25;0.90;;;;;;;;;;5322756;28;20529;-72
2022/06/19 10:40:25;;;;;;;7.65;0.70;;;;;;;;;;5323151;28;20510;-72
2022/06/19 10:43:08;;;;;;;5.20;0.50;;;;;;;;;;5324064;28;20016;-72
2022/06/19 10:45:41;;;;;;;4.03;0.65;;;;;;;;;;5322568;28;20110;-72
2022/06/19 10:48:16;;;;;;;4.32;0.50;;;;;;;;;;5322046;28;20049;-71
2022/06/19 10:50:52;;;;;;;3.50;0.40;;;;;;;;;;5322604;28;20024;-72
2022/06/19 10:53:29;;;;;;;5.82;0.82;;;;;;;;;;5321810;28;20030;-72
2022/06/19 10:56:19;;;;;;;4.40;0.40;;;;;;;;;;5323082;28;20037;-72
2022/06/19 10:58:50;;;;;;;4.00;0.52;;;;;;;;;;5322138;28;20470;-71
2022/06/19 11:04:39;;;;;;;4.15;0.40;;;;;;;;;;5236982;28;20735;-72
2022/06/19 11:07:13;;;;;;;4.22;0.40;;;;;;;;;;5236092;28;20010;-73
2022/06/19 11:09:47;;;;;;;2.78;0.40;;;;;;;;;;5287552;28;20042;-72
2022/06/19 11:12:21;;;;;;;4.15;0.40;;;;;;;;;;5322956;28;20063;-72
2022/06/19 11:14:58;;;;;;;4.85;0.40;;;;;;;;;;5322440;28;20032;-72
2022/06/19 11:17:31;;;;;;;3.58;0.40;;;;;;;;;;5322658;28;20020;-72
2022/06/19 11:20:17;;;;;;;4.90;0.50;;;;;;;;;;5321961;28;20026;-71
2022/06/19 11:22:49;;;;;;;4.13;0.50;;;;;;;;;;5323021;28;20042;-72
2022/06/19 11:25:20;;;;;;;4.70;0.50;;;;;;;;;;5322483;28;20534;-72
2022/06/19 11:27:57;;;;;;;6.07;0.50;;;;;;;;;;5322288;28;20145;-72
2022/06/19 11:30:31;;;;;;;3.28;0.40;;;;;;;;;;5322316;28;20269;-72
2022/06/19 11:33:04;;;;;;;4.32;0.43;;;;;;;;;;5323049;28;20031;-72
2022/06/19 11:35:40;;;;;;;3.70;0.60;;;;;;;;;;5321789;28;20023;-72
2022/06/19 11:38:12;;;;;;;3.88;0.70;;;;;;;;;;5322855;28;20045;-72
2022/06/19 11:40:47;;;;;;;5.38;0.47;;;;;;;;;;5322255;28;20020;-72
2022/06/19 11:43:27;;;;;;;2.42;0.40;;;;;;;;;;5322623;28;20098;-72
2022/06/19 11:46:01;;;;;;;6.13;0.50;;;;;;;;;;5323102;28;20418;-72
2022/06/19 11:48:32;;;;;;;4.78;0.50;;;;;;;;;;5321696;28;20011;-71
2022/06/19 11:51:14;;;;;;;4.55;0.63;;;;;;;;;;5322514;28;20490;-71
2022/06/19 11:53:50;;;;;;;6.22;0.65;;;;;;;;;;5322700;28;20016;-70
2022/06/19 11:56:21;;;;;;;6.40;0.50;;;;;;;;;;5324548;28;20035;-70
2022/06/19 11:58:52;;;;;;;4.20;0.57;;;;;;;;;;5326779;28;20011;-72
2022/06/19 12:01:34;;;;;;;3.55;0.50;;;;;;;;;;5326131;28;20530;-72
2022/06/19 12:04:17;;;;;;;3.95;0.55;;;;;;;;;;5325833;28;20011;-72
2022/06/19 12:06:53;;;;;;;4.70;0.60;;;;;;;;;;5326333;28;20023;-72
2022/06/19 12:09:31;;;;;;;5.32;0.70;;;;;;;;;;5324647;28;20768;-72
2022/06/19 12:12:05;;;;;;;7.35;0.60;;;;;;;;;;5326390;28;20102;-72
2022/06/19 12:14:50;;;;;;;4.13;0.73;;;;;;;;;;5326106;28;20015;-72
2022/06/19 12:17:22;;;;;;;6.72;0.60;;;;;;;;;;5325142;28;20088;-72
2022/06/19 12:19:53;;;;;;;5.83;0.60;;;;;;;;;;5326539;28;20495;-72
2022/06/19 12:22:43;;;;;;;6.70;0.75;;;;;;;;;;5325757;28;20341;-72
2022/06/19 12:25:23;;;;;;;3.45;1.00;;;;;;;;;;5325489;28;20043;-72
2022/06/19 12:28:13;;;;;;;3.40;0.50;;;;;;;;;;5326424;28;20016;-72
2022/06/19 12:30:48;;;;;;;4.97;0.90;;;;;;;;;;5325098;28;20012;-72
2022/06/19 12:33:25;;;;;;;5.80;0.70;;;;;;;;;;5325857;28;20028;-72
2022/06/19 12:35:56;;;;;;;4.88;0.75;;;;;;;;;;5326043;28;20028;-72
2022/06/19 12:38:31;;;;;;;5.47;0.90;;;;;;;;;;5324850;28;20024;-72
2022/06/19 12:41:08;;;;;;;5.43;0.60;;;;;;;;;;5325626;28;20031;-71
2022/06/19 12:43:45;;;;;;;4.40;0.68;;;;;;;;;;5325950;28;20015;-72
2022/06/19 12:46:19;;;;;;;7.95;0.73;;;;;;;;;;5324836;28;20027;-72
2022/06/19 12:49:20;;;;;;;6.30;0.70;;;;;;;;;;5326105;28;20046;-71
2022/06/19 12:51:56;;;;;;;15.55;2.03;;;;;;;;;;5234726;28;20084;-72
2022/06/19 12:54:30;;;;;;;4.57;0.80;;;;;;;;;;5325674;27;20020;-70
2022/06/19 12:57:16;;;;;;;4.47;0.98;;;;;;;;;;5332680;27;20107;-72
2022/06/19 12:59:47;;;;;;;5.50;0.80;;;;;;;;;;5323376;28;20038;-70
2022/06/19 13:02:29;;;;;;;5.88;0.63;;;;;;;;;;5324208;28;20526;-71
2022/06/19 13:05:06;;;;;;;4.07;0.70;;;;;;;;;;5324279;28;20047;-70
2022/06/19 13:07:55;;;;;;;10.15;0.80;;;;;;;;;;5322359;28;20024;-71
2022/06/19 13:10:32;;;;;;;9.43;1.13;;;;;;;;;;5323755;28;20030;-70
2022/06/19 13:13:22;;;;;;;7.35;0.85;;;;;;;;;;5323324;28;20012;-71
2022/06/19 13:15:55;;;;;;;8.52;0.90;;;;;;;;;;5324299;28;20024;-71
2022/06/19 13:18:29;;;;;;;7.03;0.80;;;;;;;;;;5323861;28;20035;-70
2022/06/19 13:21:06;;;;;;;9.32;1.38;;;;;;;;;;5322951;28;20522;-71
2022/06/19 13:23:53;;;;;;;9.98;1.02;;;;;;;;;;5324359;28;20028;-70
2022/06/19 13:29:26;;;;;;;8.27;0.93;;;;;;;;;;5324189;28;20023;-71
2022/06/19 13:32:13;;;;;;;8.68;0.90;;;;;;;;;;5326243;27;20023;-70
2022/06/19 13:34:50;;;;;;;12.25;0.90;;;;;;;;;;5322601;28;20431;-70
2022/06/19 13:37:30;;;;;;;13.80;1.00;;;;;;;;;;5323331;28;20045;-70
2022/06/19 13:40:05;;;;;;;9.48;1.33;;;;;;;;;;5326530;27;20108;-71
2022/06/19 13:42:55;;;;;;;8.50;1.55;;;;;;;;;;5344976;27;20016;-72
2022/06/19 13:45:32;;;;;;;6.10;0.82;;;;;;;;;;5324242;27;20555;-72
2022/06/19 13:48:09;;;;;;;8.20;0.75;;;;;;;;;;5323645;28;20370;-71
2022/06/19 13:50:42;;;;;;;5.85;1.23;;;;;;;;;;5324291;28;20031;-70
2022/06/19 13:53:20;;;;;;;12.00;1.13;;;;;;;;;;5324234;28;20102;-71
2022/06/19 13:56:06;;;;;;;9.18;0.90;;;;;;;;;;5323705;28;20125;-71
2022/06/19 13:58:40;;;;;;;7.30;0.90;;;;;;;;;;5324146;28;20362;-71
2022/06/19 14:01:27;;;;;;;9.43;0.80;;;;;;;;;;5324231;28;20032;-71
2022/06/19 14:07:12;;;;;;;9.55;1.55;;;;;;;;;;5324118;28;20459;-71
2022/06/19 14:09:50;;;;;;;8.05;0.90;;;;;;;;;;5323418;28;20019;-71
2022/06/19 14:12:28;;;;;;;6.13;0.68;;;;;;;;;;5323705;28;20403;-72
2022/06/19 14:15:07;;;;;;;5.50;0.85;;;;;;;;;;5324088;28;20028;-71
2022/06/19 14:17:38;;;;;;;;;;;;;;;;;;5323454;28;20584;-71
2022/06/19 14:20:14;;;;;;;6.72;0.70;;;;;;;;;;5323740;28;19904;-71
2022/06/19 14:23:02;;;;;;;5.35;0.70;;;;;;;;;;5322845;28;20035;-71
2022/06/19 14:25:36;;;;;;;6.45;0.65;;;;;;;;;;5323556;28;20037;-71
2022/06/19 14:28:27;;;;;;;6.18;0.60;;;;;;;;;;5323497;28;20019;-71
2022/06/19 14:30:59;;;;;;;7.32;1.13;;;;;;;;;;5322368;28;20137;-70
2022/06/19 14:33:32;;;;;;;8.18;0.77;;;;;;;;;;5323132;28;20024;-70
2022/06/19 14:36:08;;;;;;;7.78;0.70;;;;;;;;;;5323574;28;20119;-71
2022/06/19 14:38:39;;;;;;;8.90;0.80;;;;;;;;;;5322501;28;20027;-72
2022/06/19 14:41:13;;;;;;;6.97;1.37;;;;;;;;;;5323409;28;20015;-72
2022/06/19 14:43:51;;;;;;;5.13;0.77;;;;;;;;;;5322600;28;20304;-72
2022/06/19 14:46:23;;;;;;;7.63;0.60;;;;;;;;;;5322975;28;20007;-70
2022/06/19 14:49:16;;;;;;;9.63;0.70;;;;;;;;;;5323663;28;20055;-70
2022/06/19 14:51:47;;;;;;;11.77;0.85;;;;;;;;;;5322643;28;20015;-71
2022/06/19 14:54:26;;;;;;;8.87;0.93;;;;;;;;;;5323015;28;20107;-71
2022/06/19 14:56:57;;;;;;;;;;;;;;;;;;5323520;28;20320;-71
2022/06/19 14:59:31;;;;;;;8.32;1.35;;;;;;;;;;5322074;28;19908;-71
2022/06/19 15:02:04;;;;;;;6.78;1.05;;;;;;;;;;5323702;28;20100;-71
2022/06/19 15:04:35;;;;;;;8.88;0.85;;;;;;;;;;5323143;28;20084;-70
2022/06/19 15:07:20;;;;;;;9.13;1.00;;;;;;;;;;5322170;28;20020;-70
2022/06/19 15:09:52;;;;;;;6.85;0.95;;;;;;;;;;5323677;28;20015;-71
2022/06/19 15:12:26;;;;;;;9.73;1.00;;;;;;;;;;5322094;28;20133;-71
2022/06/19 15:14:59;;;;;;;6.18;0.60;;;;;;;;;;5323459;28;20471;-70
2022/06/19 15:17:36;;;;;;;6.43;0.80;;;;;;;;;;5322700;28;20106;-71
2022/06/19 15:20:27;;;;;;;4.72;0.77;;;;;;;;;;5322369;28;20016;-71
2022/06/19 15:23:08;;;;;;;7.25;0.68;;;;;;;;;;5323573;28;20549;-71
2022/06/19 15:25:40;;;;;;;4.13;0.55;;;;;;;;;;5322868;28;20032;-70
2022/06/19 15:28:13;;;;;;;5.60;0.60;;;;;;;;;;5322485;28;20028;-70
2022/06/19 15:30:44;;;;;;;5.70;0.60;;;;;;;;;;5325192;28;20012;-71
2022/06/19 15:33:33;;;;;;;6.50;0.70;;;;;;;;;;5326599;28;20022;-71
2022/06/19 15:36:06;;;;;;;8.93;0.77;;;;;;;;;;5327020;27;20299;-72
2022/06/19 15:38:58;;;;;;;6.13;0.70;;;;;;;;;;5326979;28;20107;-69
2022/06/19 15:41:39;;;;;;;5.78;0.50;;;;;;;;;;5326320;28;20020;-70
2022/06/19 15:44:16;;;;;;;4.47;0.50;;;;;;;;;;5326742;28;20027;-69
2022/06/19 15:47:20;;;;;;;4.80;0.60;;;;;;;;;;5326986;28;20106;-70